sensor_id;sensor_type;location;lat;lon;timestamp;P1;durP1;ratioP1;P2;durP2;ratioP2
28762;SDS011;15918;51.270;6.522;2022-12-18T00:00:59;23.92;;;19.73;;
28762;SDS011;15918;51.270;6.522;2022-12-18T00:03:24;25.52;;;19.88;;
28762;SDS011;15918;51.270;6.522;2022-12-18T00:05:50;22.25;;;18.73;;
28762;SDS011;15918;51.270;6.522;2022-12-18T00:08:17;21.83;;;18.45;;
28762;SDS011;15918;51.270;6.522;2022-12-18T00:10:44;23.17;;;19.17;;
28762;SDS011;15918;51.270;6.522;2022-12-18T00:13:10;24.25;;;20.30;;
28762;SDS011;15918;51.270;6.522;2022-12-18T00:15:36;24.00;;;20.20;;
28762;SDS011;15918;51.270;6.522;2022-12-18T00:18:03;23.88;;;18.73;;
28762;SDS011;15918;51.270;6.522;2022-12-18T00:20:29;21.05;;;18.40;;
28762;SDS011;15918;51.270;6.522;2022-12-18T00:22:55;24.75;;;18.63;;
28762;SDS011;15918;51.270;6.522;2022-12-18T00:25:21;22.80;;;18.92;;
28762;SDS011;15918;51.270;6.522;2022-12-18T00:27:47;20.42;;;17.42;;
28762;SDS011;15918;51.270;6.522;2022-12-18T00:30:13;21.45;;;17.48;;
28762;SDS011;15918;51.270;6.522;2022-12-18T00:32:38;21.30;;;17.63;;
28762;SDS011;15918;51.270;6.522;2022-12-18T00:35:04;24.25;;;17.63;;
28762;SDS011;15918;51.270;6.522;2022-12-18T00:37:31;23.60;;;18.42;;
28762;SDS011;15918;51.270;6.522;2022-12-18T00:39:58;22.35;;;18.10;;
28762;SDS011;15918;51.270;6.522;2022-12-18T00:42:23;20.90;;;17.90;;
28762;SDS011;15918;51.270;6.522;2022-12-18T00:45:07;23.95;;;16.77;;
28762;SDS011;15918;51.270;6.522;2022-12-18T00:47:33;21.88;;;17.17;;
28762;SDS011;15918;51.270;6.522;2022-12-18T00:49:59;23.15;;;16.73;;
28762;SDS011;15918;51.270;6.522;2022-12-18T00:52:24;21.30;;;17.38;;
28762;SDS011;15918;51.270;6.522;2022-12-18T00:54:50;21.00;;;16.83;;
28762;SDS011;15918;51.270;6.522;2022-12-18T00:57:15;21.95;;;17.58;;
28762;SDS011;15918;51.270;6.522;2022-12-18T00:59:41;22.10;;;17.27;;
28762;SDS011;15918;51.270;6.522;2022-12-18T01:02:06;21.20;;;17.52;;
28762;SDS011;15918;51.270;6.522;2022-12-18T01:04:32;22.75;;;17.20;;
28762;SDS011;15918;51.270;6.522;2022-12-18T01:06:58;21.45;;;17.80;;
28762;SDS011;15918;51.270;6.522;2022-12-18T01:09:23;18.23;;;16.05;;
28762;SDS011;15918;51.270;6.522;2022-12-18T01:11:49;23.15;;;18.13;;
28762;SDS011;15918;51.270;6.522;2022-12-18T01:14:14;22.58;;;17.80;;
28762;SDS011;15918;51.270;6.522;2022-12-18T01:16:40;20.10;;;17.77;;
28762;SDS011;15918;51.270;6.522;2022-12-18T01:19:05;23.40;;;17.13;;
28762;SDS011;15918;51.270;6.522;2022-12-18T01:21:31;18.88;;;16.35;;
28762;SDS011;15918;51.270;6.522;2022-12-18T01:23:57;20.23;;;16.17;;
28762;SDS011;15918;51.270;6.522;2022-12-18T01:26:23;20.63;;;17.00;;
28762;SDS011;15918;51.270;6.522;2022-12-18T01:28:49;20.83;;;16.80;;
28762;SDS011;15918;51.270;6.522;2022-12-18T01:31:20;23.20;;;17.77;;
28762;SDS011;15918;51.270;6.522;2022-12-18T01:33:46;22.20;;;18.35;;
28762;SDS011;15918;51.270;6.522;2022-12-18T01:36:16;24.60;;;18.13;;
28762;SDS011;15918;51.270;6.522;2022-12-18T01:38:50;20.00;;;17.05;;
28762;SDS011;15918;51.270;6.522;2022-12-18T01:41:17;22.88;;;18.10;;
28762;SDS011;15918;51.270;6.522;2022-12-18T01:43:50;21.98;;;18.05;;
28762;SDS011;15918;51.270;6.522;2022-12-18T01:46:18;20.55;;;17.17;;
28762;SDS011;15918;51.270;6.522;2022-12-18T01:48:49;19.80;;;16.98;;
28762;SDS011;15918;51.270;6.522;2022-12-18T01:51:19;24.15;;;19.00;;
28762;SDS011;15918;51.270;6.522;2022-12-18T01:53:45;23.33;;;17.92;;
28762;SDS011;15918;51.270;6.522;2022-12-18T01:56:15;23.35;;;18.08;;
28762;SDS011;15918;51.270;6.522;2022-12-18T01:58:46;24.95;;;18.92;;
28762;SDS011;15918;51.270;6.522;2022-12-18T02:01:21;24.08;;;18.08;;
28762;SDS011;15918;51.270;6.522;2022-12-18T02:03:48;23.98;;;18.92;;
28762;SDS011;15918;51.270;6.522;2022-12-18T02:06:21;21.52;;;17.80;;
28762;SDS011;15918;51.270;6.522;2022-12-18T02:09:01;23.30;;;18.27;;
28762;SDS011;15918;51.270;6.522;2022-12-18T02:11:46;23.23;;;19.58;;
28762;SDS011;15918;51.270;6.522;2022-12-18T02:17:21;20.67;;;17.75;;
28762;SDS011;15918;51.270;6.522;2022-12-18T02:22:43;22.15;;;18.45;;
28762;SDS011;15918;51.270;6.522;2022-12-18T02:25:43;22.85;;;18.70;;
28762;SDS011;15918;51.270;6.522;2022-12-18T02:31:23;24.30;;;19.83;;
28762;SDS011;15918;51.270;6.522;2022-12-18T02:33:53;23.10;;;18.10;;
28762;SDS011;15918;51.270;6.522;2022-12-18T02:36:23;22.65;;;18.85;;
28762;SDS011;15918;51.270;6.522;2022-12-18T02:38:52;22.50;;;18.35;;
28762;SDS011;15918;51.270;6.522;2022-12-18T02:41:19;24.02;;;18.70;;
28762;SDS011;15918;51.270;6.522;2022-12-18T02:43:47;23.92;;;18.50;;
28762;SDS011;15918;51.270;6.522;2022-12-18T02:46:23;23.02;;;18.50;;
28762;SDS011;15918;51.270;6.522;2022-12-18T02:48:50;22.85;;;19.08;;
28762;SDS011;15918;51.270;6.522;2022-12-18T02:51:29;25.08;;;19.90;;
28762;SDS011;15918;51.270;6.522;2022-12-18T02:57:14;22.60;;;19.08;;
28762;SDS011;15918;51.270;6.522;2022-12-18T03:00:00;22.73;;;18.50;;
28762;SDS011;15918;51.270;6.522;2022-12-18T03:08:08;24.48;;;19.55;;
28762;SDS011;15918;51.270;6.522;2022-12-18T03:10:41;22.60;;;19.52;;
28762;SDS011;15918;51.270;6.522;2022-12-18T03:13:21;25.33;;;19.30;;
28762;SDS011;15918;51.270;6.522;2022-12-18T03:15:55;22.55;;;18.20;;
28762;SDS011;15918;51.270;6.522;2022-12-18T03:18:29;22.65;;;18.85;;
28762;SDS011;15918;51.270;6.522;2022-12-18T03:21:02;23.95;;;20.30;;
28762;SDS011;15918;51.270;6.522;2022-12-18T03:23:32;25.70;;;20.15;;
28762;SDS011;15918;51.270;6.522;2022-12-18T03:26:04;24.83;;;19.52;;
28762;SDS011;15918;51.270;6.522;2022-12-18T03:28:35;23.92;;;19.52;;
28762;SDS011;15918;51.270;6.522;2022-12-18T03:31:05;23.95;;;19.42;;
28762;SDS011;15918;51.270;6.522;2022-12-18T03:33:36;24.40;;;18.73;;
28762;SDS011;15918;51.270;6.522;2022-12-18T03:36:06;23.70;;;19.48;;
28762;SDS011;15918;51.270;6.522;2022-12-18T03:38:32;23.85;;;18.35;;
28762;SDS011;15918;51.270;6.522;2022-12-18T03:41:03;22.65;;;18.83;;
28762;SDS011;15918;51.270;6.522;2022-12-18T03:55:08;21.23;;;18.38;;
28762;SDS011;15918;51.270;6.522;2022-12-18T03:57:34;21.52;;;17.67;;
28762;SDS011;15918;51.270;6.522;2022-12-18T04:00:04;21.98;;;17.85;;
28762;SDS011;15918;51.270;6.522;2022-12-18T04:02:52;23.77;;;17.80;;
28762;SDS011;15918;51.270;6.522;2022-12-18T04:05:20;23.27;;;18.02;;
28762;SDS011;15918;51.270;6.522;2022-12-18T04:07:48;23.90;;;18.08;;
28762;SDS011;15918;51.270;6.522;2022-12-18T04:10:17;22.77;;;19.00;;
28762;SDS011;15918;51.270;6.522;2022-12-18T04:12:43;21.77;;;17.30;;
28762;SDS011;15918;51.270;6.522;2022-12-18T04:15:10;25.05;;;18.65;;
28762;SDS011;15918;51.270;6.522;2022-12-18T04:17:37;22.58;;;17.98;;
28762;SDS011;15918;51.270;6.522;2022-12-18T04:20:03;22.08;;;17.98;;
28762;SDS011;15918;51.270;6.522;2022-12-18T04:22:29;18.90;;;16.50;;
28762;SDS011;15918;51.270;6.522;2022-12-18T04:24:55;21.75;;;17.20;;
28762;SDS011;15918;51.270;6.522;2022-12-18T04:27:21;20.10;;;17.63;;
28762;SDS011;15918;51.270;6.522;2022-12-18T04:29:46;19.73;;;16.92;;
28762;SDS011;15918;51.270;6.522;2022-12-18T04:32:12;20.83;;;16.98;;
28762;SDS011;15918;51.270;6.522;2022-12-18T04:34:38;21.80;;;17.67;;
28762;SDS011;15918;51.270;6.522;2022-12-18T04:37:03;21.10;;;16.50;;
28762;SDS011;15918;51.270;6.522;2022-12-18T04:39:29;21.00;;;17.25;;
28762;SDS011;15918;51.270;6.522;2022-12-18T04:41:54;19.48;;;16.17;;
28762;SDS011;15918;51.270;6.522;2022-12-18T04:44:20;21.40;;;17.23;;
28762;SDS011;15918;51.270;6.522;2022-12-18T04:46:46;23.25;;;17.33;;
28762;SDS011;15918;51.270;6.522;2022-12-18T04:49:11;22.20;;;16.67;;
28762;SDS011;15918;51.270;6.522;2022-12-18T04:51:37;18.48;;;16.27;;
28762;SDS011;15918;51.270;6.522;2022-12-18T04:54:03;21.25;;;16.17;;
28762;SDS011;15918;51.270;6.522;2022-12-18T04:56:30;18.58;;;16.10;;
28762;SDS011;15918;51.270;6.522;2022-12-18T04:58:56;22.75;;;17.13;;
28762;SDS011;15918;51.270;6.522;2022-12-18T05:01:22;21.58;;;17.13;;
28762;SDS011;15918;51.270;6.522;2022-12-18T05:03:48;19.23;;;16.65;;
28762;SDS011;15918;51.270;6.522;2022-12-18T05:06:13;19.80;;;16.58;;
28762;SDS011;15918;51.270;6.522;2022-12-18T05:08:39;20.48;;;16.63;;
28762;SDS011;15918;51.270;6.522;2022-12-18T05:11:05;20.10;;;17.15;;
28762;SDS011;15918;51.270;6.522;2022-12-18T05:13:36;19.17;;;16.42;;
28762;SDS011;15918;51.270;6.522;2022-12-18T05:16:03;22.02;;;17.33;;
28762;SDS011;15918;51.270;6.522;2022-12-18T05:18:29;19.63;;;16.90;;
28762;SDS011;15918;51.270;6.522;2022-12-18T05:20:55;18.52;;;16.30;;
28762;SDS011;15918;51.270;6.522;2022-12-18T05:23:22;20.90;;;17.35;;
28762;SDS011;15918;51.270;6.522;2022-12-18T05:25:58;20.10;;;16.65;;
28762;SDS011;15918;51.270;6.522;2022-12-18T05:28:25;18.17;;;15.77;;
28762;SDS011;15918;51.270;6.522;2022-12-18T05:30:53;19.27;;;15.52;;
28762;SDS011;15918;51.270;6.522;2022-12-18T05:33:21;21.98;;;16.27;;
28762;SDS011;15918;51.270;6.522;2022-12-18T05:35:55;22.50;;;16.42;;
28762;SDS011;15918;51.270;6.522;2022-12-18T05:38:22;21.00;;;17.08;;
28762;SDS011;15918;51.270;6.522;2022-12-18T05:40:49;17.52;;;15.63;;
28762;SDS011;15918;51.270;6.522;2022-12-18T05:43:16;22.10;;;17.52;;
28762;SDS011;15918;51.270;6.522;2022-12-18T05:45:43;20.98;;;16.48;;
28762;SDS011;15918;51.270;6.522;2022-12-18T05:48:09;20.52;;;16.60;;
28762;SDS011;15918;51.270;6.522;2022-12-18T05:50:35;20.45;;;16.83;;
28762;SDS011;15918;51.270;6.522;2022-12-18T05:53:02;19.50;;;16.08;;
28762;SDS011;15918;51.270;6.522;2022-12-18T05:55:28;19.77;;;16.20;;
28762;SDS011;15918;51.270;6.522;2022-12-18T05:57:54;19.60;;;15.93;;
28762;SDS011;15918;51.270;6.522;2022-12-18T06:00:19;21.58;;;17.35;;
28762;SDS011;15918;51.270;6.522;2022-12-18T06:02:48;21.20;;;17.55;;
28762;SDS011;15918;51.270;6.522;2022-12-18T06:05:13;19.83;;;17.40;;
28762;SDS011;15918;51.270;6.522;2022-12-18T06:07:39;19.33;;;15.70;;
28762;SDS011;15918;51.270;6.522;2022-12-18T06:10:05;19.88;;;16.48;;
28762;SDS011;15918;51.270;6.522;2022-12-18T06:12:31;21.70;;;17.48;;
28762;SDS011;15918;51.270;6.522;2022-12-18T06:14:58;19.40;;;16.23;;
28762;SDS011;15918;51.270;6.522;2022-12-18T06:17:27;18.85;;;16.58;;
28762;SDS011;15918;51.270;6.522;2022-12-18T06:19:56;22.70;;;18.05;;
28762;SDS011;15918;51.270;6.522;2022-12-18T06:22:22;21.80;;;17.42;;
28762;SDS011;15918;51.270;6.522;2022-12-18T06:24:47;21.52;;;17.75;;
28762;SDS011;15918;51.270;6.522;2022-12-18T06:27:13;21.08;;;17.23;;
28762;SDS011;15918;51.270;6.522;2022-12-18T06:29:39;21.42;;;17.92;;
28762;SDS011;15918;51.270;6.522;2022-12-18T06:32:05;20.65;;;17.60;;
28762;SDS011;15918;51.270;6.522;2022-12-18T06:34:31;21.10;;;17.45;;
28762;SDS011;15918;51.270;6.522;2022-12-18T06:36:57;20.85;;;18.02;;
28762;SDS011;15918;51.270;6.522;2022-12-18T06:39:23;21.73;;;17.65;;
28762;SDS011;15918;51.270;6.522;2022-12-18T06:41:48;20.52;;;17.25;;
28762;SDS011;15918;51.270;6.522;2022-12-18T06:44:14;24.38;;;18.50;;
28762;SDS011;15918;51.270;6.522;2022-12-18T06:46:39;20.50;;;17.15;;
28762;SDS011;15918;51.270;6.522;2022-12-18T06:49:05;23.77;;;18.67;;
28762;SDS011;15918;51.270;6.522;2022-12-18T06:51:31;22.67;;;18.42;;
28762;SDS011;15918;51.270;6.522;2022-12-18T06:53:56;25.98;;;18.77;;
28762;SDS011;15918;51.270;6.522;2022-12-18T06:56:22;22.60;;;18.10;;
28762;SDS011;15918;51.270;6.522;2022-12-18T06:58:47;22.02;;;17.73;;
28762;SDS011;15918;51.270;6.522;2022-12-18T07:01:13;22.42;;;19.65;;
28762;SDS011;15918;51.270;6.522;2022-12-18T07:03:39;22.33;;;18.55;;
28762;SDS011;15918;51.270;6.522;2022-12-18T07:06:12;23.35;;;19.08;;
28762;SDS011;15918;51.270;6.522;2022-12-18T07:08:40;22.42;;;18.13;;
28762;SDS011;15918;51.270;6.522;2022-12-18T07:11:05;23.80;;;18.08;;
28762;SDS011;15918;51.270;6.522;2022-12-18T07:13:31;23.45;;;19.23;;
28762;SDS011;15918;51.270;6.522;2022-12-18T07:16:03;20.80;;;17.55;;
28762;SDS011;15918;51.270;6.522;2022-12-18T07:18:32;23.77;;;19.25;;
28762;SDS011;15918;51.270;6.522;2022-12-18T07:20:58;23.20;;;19.10;;
28762;SDS011;15918;51.270;6.522;2022-12-18T07:23:28;21.65;;;18.80;;
28762;SDS011;15918;51.270;6.522;2022-12-18T07:25:53;22.95;;;18.65;;
28762;SDS011;15918;51.270;6.522;2022-12-18T07:28:19;22.33;;;18.70;;
28762;SDS011;15918;51.270;6.522;2022-12-18T07:30:45;22.55;;;18.13;;
28762;SDS011;15918;51.270;6.522;2022-12-18T07:33:10;24.23;;;19.00;;
28762;SDS011;15918;51.270;6.522;2022-12-18T07:35:36;24.65;;;17.83;;
28762;SDS011;15918;51.270;6.522;2022-12-18T07:38:01;24.45;;;18.90;;
28762;SDS011;15918;51.270;6.522;2022-12-18T07:40:27;23.08;;;18.77;;
28762;SDS011;15918;51.270;6.522;2022-12-18T07:42:52;21.52;;;17.35;;
28762;SDS011;15918;51.270;6.522;2022-12-18T07:45:18;21.98;;;18.25;;
28762;SDS011;15918;51.270;6.522;2022-12-18T07:47:43;21.75;;;18.67;;
28762;SDS011;15918;51.270;6.522;2022-12-18T07:50:09;26.80;;;19.25;;
28762;SDS011;15918;51.270;6.522;2022-12-18T07:52:34;23.30;;;17.92;;
28762;SDS011;15918;51.270;6.522;2022-12-18T07:55:00;23.40;;;18.05;;
28762;SDS011;15918;51.270;6.522;2022-12-18T07:57:26;22.17;;;18.05;;
28762;SDS011;15918;51.270;6.522;2022-12-18T07:59:51;21.63;;;18.33;;
28762;SDS011;15918;51.270;6.522;2022-12-18T08:02:17;21.60;;;18.42;;
28762;SDS011;15918;51.270;6.522;2022-12-18T08:04:42;20.98;;;17.73;;
28762;SDS011;15918;51.270;6.522;2022-12-18T08:07:08;21.33;;;17.65;;
28762;SDS011;15918;51.270;6.522;2022-12-18T08:09:34;24.92;;;18.48;;
28762;SDS011;15918;51.270;6.522;2022-12-18T08:11:59;23.63;;;18.13;;
28762;SDS011;15918;51.270;6.522;2022-12-18T08:14:25;19.80;;;16.83;;
28762;SDS011;15918;51.270;6.522;2022-12-18T08:16:51;20.08;;;17.52;;
28762;SDS011;15918;51.270;6.522;2022-12-18T08:19:16;20.30;;;17.08;;
28762;SDS011;15918;51.270;6.522;2022-12-18T08:21:42;20.60;;;17.67;;
28762;SDS011;15918;51.270;6.522;2022-12-18T08:24:08;21.23;;;17.67;;
28762;SDS011;15918;51.270;6.522;2022-12-18T08:26:35;22.08;;;18.35;;
28762;SDS011;15918;51.270;6.522;2022-12-18T08:29:01;25.35;;;20.65;;
28762;SDS011;15918;51.270;6.522;2022-12-18T08:31:27;25.13;;;18.73;;
28762;SDS011;15918;51.270;6.522;2022-12-18T08:33:54;23.85;;;19.02;;
28762;SDS011;15918;51.270;6.522;2022-12-18T08:36:20;23.77;;;18.77;;
28762;SDS011;15918;51.270;6.522;2022-12-18T08:38:47;24.70;;;18.40;;
28762;SDS011;15918;51.270;6.522;2022-12-18T08:41:14;21.95;;;18.20;;
28762;SDS011;15918;51.270;6.522;2022-12-18T08:43:41;24.38;;;18.63;;
28762;SDS011;15918;51.270;6.522;2022-12-18T08:46:26;23.98;;;18.60;;
28762;SDS011;15918;51.270;6.522;2022-12-18T08:48:52;22.77;;;17.83;;
28762;SDS011;15918;51.270;6.522;2022-12-18T08:51:20;23.65;;;19.17;;
28762;SDS011;15918;51.270;6.522;2022-12-18T08:53:46;21.10;;;18.33;;
28762;SDS011;15918;51.270;6.522;2022-12-18T08:56:12;26.02;;;18.17;;
28762;SDS011;15918;51.270;6.522;2022-12-18T08:58:37;23.55;;;18.92;;
28762;SDS011;15918;51.270;6.522;2022-12-18T09:01:04;25.70;;;19.02;;
28762;SDS011;15918;51.270;6.522;2022-12-18T09:03:34;25.25;;;18.90;;
28762;SDS011;15918;51.270;6.522;2022-12-18T09:06:00;24.30;;;19.70;;
28762;SDS011;15918;51.270;6.522;2022-12-18T09:08:26;25.77;;;19.20;;
28762;SDS011;15918;51.270;6.522;2022-12-18T09:10:52;23.95;;;20.02;;
28762;SDS011;15918;51.270;6.522;2022-12-18T09:13:17;27.05;;;20.67;;
28762;SDS011;15918;51.270;6.522;2022-12-18T09:15:44;26.25;;;19.58;;
28762;SDS011;15918;51.270;6.522;2022-12-18T09:18:15;22.98;;;19.15;;
28762;SDS011;15918;51.270;6.522;2022-12-18T09:20:42;22.27;;;18.75;;
28762;SDS011;15918;51.270;6.522;2022-12-18T09:23:08;23.30;;;19.52;;
28762;SDS011;15918;51.270;6.522;2022-12-18T09:25:34;25.88;;;18.83;;
28762;SDS011;15918;51.270;6.522;2022-12-18T09:28:05;22.10;;;18.58;;
28762;SDS011;15918;51.270;6.522;2022-12-18T09:30:31;22.63;;;19.38;;
28762;SDS011;15918;51.270;6.522;2022-12-18T09:32:59;23.30;;;19.65;;
28762;SDS011;15918;51.270;6.522;2022-12-18T09:35:25;24.65;;;19.90;;
28762;SDS011;15918;51.270;6.522;2022-12-18T09:37:51;23.15;;;18.92;;
28762;SDS011;15918;51.270;6.522;2022-12-18T09:40:18;23.27;;;18.98;;
28762;SDS011;15918;51.270;6.522;2022-12-18T09:42:48;25.58;;;19.00;;
28762;SDS011;15918;51.270;6.522;2022-12-18T09:45:24;22.90;;;19.73;;
28762;SDS011;15918;51.270;6.522;2022-12-18T09:47:49;28.40;;;20.48;;
28762;SDS011;15918;51.270;6.522;2022-12-18T09:50:29;24.65;;;19.15;;
28762;SDS011;15918;51.270;6.522;2022-12-18T09:52:59;24.58;;;19.33;;
28762;SDS011;15918;51.270;6.522;2022-12-18T09:55:41;24.55;;;20.50;;
28762;SDS011;15918;51.270;6.522;2022-12-18T10:00:38;25.02;;;20.10;;
28762;SDS011;15918;51.270;6.522;2022-12-18T10:03:10;26.83;;;21.27;;
28762;SDS011;15918;51.270;6.522;2022-12-18T10:05:49;23.80;;;19.17;;
28762;SDS011;15918;51.270;6.522;2022-12-18T10:11:32;26.60;;;20.73;;
28762;SDS011;15918;51.270;6.522;2022-12-18T10:20:10;25.27;;;20.70;;
28762;SDS011;15918;51.270;6.522;2022-12-18T10:22:43;24.35;;;19.63;;
28762;SDS011;15918;51.270;6.522;2022-12-18T10:28:29;24.80;;;19.70;;
28762;SDS011;15918;51.270;6.522;2022-12-18T10:30:56;27.65;;;20.35;;
28762;SDS011;15918;51.270;6.522;2022-12-18T10:33:23;28.52;;;20.55;;
28762;SDS011;15918;51.270;6.522;2022-12-18T10:39:16;26.73;;;20.50;;
28762;SDS011;15918;51.270;6.522;2022-12-18T10:41:47;28.35;;;21.65;;
28762;SDS011;15918;51.270;6.522;2022-12-18T10:44:17;27.25;;;20.55;;
28762;SDS011;15918;51.270;6.522;2022-12-18T10:46:50;23.75;;;20.02;;
28762;SDS011;15918;51.270;6.522;2022-12-18T10:49:25;26.75;;;21.20;;
28762;SDS011;15918;51.270;6.522;2022-12-18T10:52:07;25.40;;;18.80;;
28762;SDS011;15918;51.270;6.522;2022-12-18T10:54:40;27.10;;;19.98;;
28762;SDS011;15918;51.270;6.522;2022-12-18T10:57:28;24.77;;;20.92;;
28762;SDS011;15918;51.270;6.522;2022-12-18T10:59:57;26.67;;;21.02;;
28762;SDS011;15918;51.270;6.522;2022-12-18T11:02:25;27.63;;;21.15;;
28762;SDS011;15918;51.270;6.522;2022-12-18T11:05:03;27.42;;;21.33;;
28762;SDS011;15918;51.270;6.522;2022-12-18T11:07:55;25.40;;;20.23;;
28762;SDS011;15918;51.270;6.522;2022-12-18T11:10:25;26.27;;;21.90;;
28762;SDS011;15918;51.270;6.522;2022-12-18T11:13:23;26.55;;;20.85;;
28762;SDS011;15918;51.270;6.522;2022-12-18T11:15:50;25.90;;;20.35;;
28762;SDS011;15918;51.270;6.522;2022-12-18T11:18:22;25.13;;;20.45;;
28762;SDS011;15918;51.270;6.522;2022-12-18T11:20:56;26.92;;;21.75;;
28762;SDS011;15918;51.270;6.522;2022-12-18T11:23:24;24.58;;;21.35;;
28762;SDS011;15918;51.270;6.522;2022-12-18T11:25:51;26.85;;;21.80;;
28762;SDS011;15918;51.270;6.522;2022-12-18T11:28:39;25.17;;;20.67;;
28762;SDS011;15918;51.270;6.522;2022-12-18T11:31:18;29.77;;;22.08;;
28762;SDS011;15918;51.270;6.522;2022-12-18T11:36:44;26.52;;;21.63;;
28762;SDS011;15918;51.270;6.522;2022-12-18T11:39:18;23.45;;;19.83;;
28762;SDS011;15918;51.270;6.522;2022-12-18T11:42:01;28.40;;;23.02;;
28762;SDS011;15918;51.270;6.522;2022-12-18T11:44:57;31.75;;;22.35;;
28762;SDS011;15918;51.270;6.522;2022-12-18T11:47:41;26.02;;;22.50;;
28762;SDS011;15918;51.270;6.522;2022-12-18T11:50:28;27.37;;;21.33;;
28762;SDS011;15918;51.270;6.522;2022-12-18T11:52:58;28.73;;;22.27;;
28762;SDS011;15918;51.270;6.522;2022-12-18T12:01:17;25.25;;;21.38;;
28762;SDS011;15918;51.270;6.522;2022-12-18T12:06:22;28.55;;;22.25;;
28762;SDS011;15918;51.270;6.522;2022-12-18T12:12:04;32.05;;;23.05;;
28762;SDS011;15918;51.270;6.522;2022-12-18T12:17:32;29.35;;;23.35;;
28762;SDS011;15918;51.270;6.522;2022-12-18T12:20:20;27.45;;;23.00;;
28762;SDS011;15918;51.270;6.522;2022-12-18T12:28:02;28.40;;;22.92;;
28762;SDS011;15918;51.270;6.522;2022-12-18T12:39:06;28.92;;;22.30;;
28762;SDS011;15918;51.270;6.522;2022-12-18T12:41:39;26.35;;;22.77;;
28762;SDS011;15918;51.270;6.522;2022-12-18T12:47:00;30.50;;;23.10;;
28762;SDS011;15918;51.270;6.522;2022-12-18T12:49:36;27.33;;;22.50;;
28762;SDS011;15918;51.270;6.522;2022-12-18T12:52:05;30.40;;;24.15;;
28762;SDS011;15918;51.270;6.522;2022-12-18T12:54:37;26.98;;;23.17;;
28762;SDS011;15918;51.270;6.522;2022-12-18T12:57:07;29.05;;;23.70;;
28762;SDS011;15918;51.270;6.522;2022-12-18T12:59:55;29.20;;;23.63;;
28762;SDS011;15918;51.270;6.522;2022-12-18T13:08:32;30.50;;;23.83;;
28762;SDS011;15918;51.270;6.522;2022-12-18T13:19:40;30.52;;;24.38;;
28762;SDS011;15918;51.270;6.522;2022-12-18T13:22:51;28.15;;;23.45;;
28762;SDS011;15918;51.270;6.522;2022-12-18T13:24:57;31.40;;;25.15;;
28762;SDS011;15918;51.270;6.522;2022-12-18T13:30:41;32.17;;;24.40;;
28762;SDS011;15918;51.270;6.522;2022-12-18T13:38:22;33.28;;;25.35;;
28762;SDS011;15918;51.270;6.522;2022-12-18T13:45:50;32.35;;;25.15;;
28762;SDS011;15918;51.270;6.522;2022-12-18T13:49:15;31.92;;;25.88;;
28762;SDS011;15918;51.270;6.522;2022-12-18T13:51:49;30.13;;;24.63;;
28762;SDS011;15918;51.270;6.522;2022-12-18T13:56:59;39.08;;;27.23;;
28762;SDS011;15918;51.270;6.522;2022-12-18T13:59:46;32.00;;;25.73;;
28762;SDS011;15918;51.270;6.522;2022-12-18T14:04:44;35.03;;;26.58;;
28762;SDS011;15918;51.270;6.522;2022-12-18T14:07:11;34.85;;;27.00;;
28762;SDS011;15918;51.270;6.522;2022-12-18T14:09:40;34.00;;;27.20;;
28762;SDS011;15918;51.270;6.522;2022-12-18T14:12:44;41.90;;;29.23;;
28762;SDS011;15918;51.270;6.522;2022-12-18T14:17:49;33.95;;;27.30;;
28762;SDS011;15918;51.270;6.522;2022-12-18T14:20:15;31.13;;;26.30;;
28762;SDS011;15918;51.270;6.522;2022-12-18T14:22:43;32.88;;;27.50;;
28762;SDS011;15918;51.270;6.522;2022-12-18T14:25:18;33.78;;;27.70;;
28762;SDS011;15918;51.270;6.522;2022-12-18T14:27:50;35.35;;;28.02;;
28762;SDS011;15918;51.270;6.522;2022-12-18T14:30:32;34.28;;;27.20;;
28762;SDS011;15918;51.270;6.522;2022-12-18T14:33:10;32.55;;;27.40;;
28762;SDS011;15918;51.270;6.522;2022-12-18T14:35:56;33.25;;;28.35;;
28762;SDS011;15918;51.270;6.522;2022-12-18T14:38:27;36.60;;;28.40;;
28762;SDS011;15918;51.270;6.522;2022-12-18T14:41:10;40.42;;;29.85;;
28762;SDS011;15918;51.270;6.522;2022-12-18T14:43:41;36.75;;;29.88;;
28762;SDS011;15918;51.270;6.522;2022-12-18T14:49:04;36.92;;;29.40;;
28762;SDS011;15918;51.270;6.522;2022-12-18T14:51:54;37.38;;;28.83;;
28762;SDS011;15918;51.270;6.522;2022-12-18T14:54:25;35.72;;;27.67;;
28762;SDS011;15918;51.270;6.522;2022-12-18T14:56:56;34.72;;;28.63;;
28762;SDS011;15918;51.270;6.522;2022-12-18T14:59:28;36.35;;;28.88;;
28762;SDS011;15918;51.270;6.522;2022-12-18T15:04:37;36.25;;;27.83;;
28762;SDS011;15918;51.270;6.522;2022-12-18T15:09:36;37.00;;;28.70;;
28762;SDS011;15918;51.270;6.522;2022-12-18T15:12:03;37.00;;;28.92;;
28762;SDS011;15918;51.270;6.522;2022-12-18T15:14:33;36.20;;;28.63;;
28762;SDS011;15918;51.270;6.522;2022-12-18T15:17:06;35.78;;;27.65;;
28762;SDS011;15918;51.270;6.522;2022-12-18T15:19:42;35.72;;;28.17;;
28762;SDS011;15918;51.270;6.522;2022-12-18T15:24:46;37.45;;;29.95;;
28762;SDS011;15918;51.270;6.522;2022-12-18T15:27:21;36.65;;;29.42;;
28762;SDS011;15918;51.270;6.522;2022-12-18T15:32:34;39.10;;;30.73;;
28762;SDS011;15918;51.270;6.522;2022-12-18T15:37:35;36.22;;;30.70;;
28762;SDS011;15918;51.270;6.522;2022-12-18T15:40:02;35.92;;;29.73;;
28762;SDS011;15918;51.270;6.522;2022-12-18T15:42:29;34.22;;;28.33;;
28762;SDS011;15918;51.270;6.522;2022-12-18T15:45:13;36.53;;;29.08;;
28762;SDS011;15918;51.270;6.522;2022-12-18T15:47:39;35.95;;;29.63;;
28762;SDS011;15918;51.270;6.522;2022-12-18T15:50:06;36.80;;;30.13;;
28762;SDS011;15918;51.270;6.522;2022-12-18T15:52:34;36.63;;;30.58;;
28762;SDS011;15918;51.270;6.522;2022-12-18T15:55:09;37.67;;;30.80;;
28762;SDS011;15918;51.270;6.522;2022-12-18T15:57:59;36.67;;;29.50;;
28762;SDS011;15918;51.270;6.522;2022-12-18T16:00:24;38.70;;;30.95;;
28762;SDS011;15918;51.270;6.522;2022-12-18T16:02:50;38.80;;;30.38;;
28762;SDS011;15918;51.270;6.522;2022-12-18T16:05:17;38.90;;;30.52;;
28762;SDS011;15918;51.270;6.522;2022-12-18T16:07:44;39.72;;;32.20;;
28762;SDS011;15918;51.270;6.522;2022-12-18T16:10:10;38.50;;;30.83;;
28762;SDS011;15918;51.270;6.522;2022-12-18T16:12:36;37.40;;;30.60;;
28762;SDS011;15918;51.270;6.522;2022-12-18T16:15:02;40.22;;;30.98;;
28762;SDS011;15918;51.270;6.522;2022-12-18T16:17:29;38.03;;;31.52;;
28762;SDS011;15918;51.270;6.522;2022-12-18T16:19:54;36.50;;;31.30;;
28762;SDS011;15918;51.270;6.522;2022-12-18T16:22:21;39.70;;;33.05;;
28762;SDS011;15918;51.270;6.522;2022-12-18T16:24:49;37.53;;;31.30;;
28762;SDS011;15918;51.270;6.522;2022-12-18T16:27:15;39.78;;;31.25;;
28762;SDS011;15918;51.270;6.522;2022-12-18T16:29:41;39.53;;;31.90;;
28762;SDS011;15918;51.270;6.522;2022-12-18T16:32:08;38.97;;;32.05;;
28762;SDS011;15918;51.270;6.522;2022-12-18T16:34:38;40.90;;;31.45;;
28762;SDS011;15918;51.270;6.522;2022-12-18T16:37:04;37.45;;;31.60;;
28762;SDS011;15918;51.270;6.522;2022-12-18T16:39:32;36.92;;;31.42;;
28762;SDS011;15918;51.270;6.522;2022-12-18T16:41:59;38.70;;;31.80;;
28762;SDS011;15918;51.270;6.522;2022-12-18T16:44:25;41.25;;;33.20;;
28762;SDS011;15918;51.270;6.522;2022-12-18T16:46:51;38.75;;;31.88;;
28762;SDS011;15918;51.270;6.522;2022-12-18T16:49:17;36.92;;;31.20;;